createdAt,value
2023-05-14T00:00:30.676Z,17.94
2023-05-14T00:02:57.852Z,17.93
2023-05-14T00:05:25.198Z,17.91
2023-05-14T00:07:52.226Z,17.88
2023-05-14T00:10:20.891Z,17.84
2023-05-14T00:12:48.157Z,17.81
2023-05-14T00:15:15.386Z,17.77
2023-05-14T00:17:42.841Z,17.78
2023-05-14T00:20:12.205Z,17.76
2023-05-14T00:22:39.937Z,17.79
2023-05-14T00:25:08.257Z,17.81
2023-05-14T00:27:37.882Z,17.85
2023-05-14T00:30:07.187Z,17.82
2023-05-14T00:32:34.418Z,17.85
2023-05-14T00:35:03.253Z,17.73
2023-05-14T00:37:30.718Z,17.66
2023-05-14T00:39:58.924Z,17.59
2023-05-14T00:42:27.231Z,17.57
2023-05-14T00:44:54.314Z,17.54
2023-05-14T00:47:21.425Z,17.55
2023-05-14T00:49:48.605Z,17.57
2023-05-14T00:52:16.971Z,17.63
2023-05-14T00:54:46.080Z,17.68
2023-05-14T00:57:13.303Z,17.73
2023-05-14T00:59:41.978Z,17.74
2023-05-14T01:02:09.111Z,17.77
2023-05-14T01:04:36.379Z,17.77
2023-05-14T01:07:45.016Z,17.78
2023-05-14T01:10:36.071Z,17.73
2023-05-14T01:13:18.652Z,17.69
2023-05-14T01:15:48.010Z,17.64
2023-05-14T01:18:19.250Z,17.67
2023-05-14T01:20:46.499Z,17.67
2023-05-14T01:23:13.542Z,17.68
2023-05-14T01:25:41.610Z,17.68
2023-05-14T01:28:20.621Z,17.67
2023-05-14T01:31:10.614Z,17.61
2023-05-14T01:33:41.856Z,17.53
2023-05-14T01:36:10.051Z,17.51
2023-05-14T01:38:38.618Z,17.49
2023-05-14T01:41:06.383Z,17.54
2023-05-14T01:43:34.045Z,17.53
2023-05-14T01:46:01.551Z,17.51
2023-05-14T01:48:30.109Z,17.48
2023-05-14T01:50:57.258Z,17.47
2023-05-14T01:53:24.629Z,17.49
2023-05-14T01:55:51.888Z,17.46
2023-05-14T01:58:20.063Z,17.42
2023-05-14T02:00:47.386Z,17.40
2023-05-14T02:03:16.010Z,17.46
2023-05-14T02:05:42.977Z,17.43
2023-05-14T02:08:10.763Z,17.50
2023-05-14T02:10:37.937Z,17.55
2023-05-14T02:13:05.140Z,17.54
2023-05-14T02:15:32.196Z,17.62
2023-05-14T02:17:59.363Z,17.57
2023-05-14T02:20:26.595Z,17.57
2023-05-14T02:22:53.570Z,17.58
2023-05-14T02:25:21.216Z,17.65
2023-05-14T02:27:48.592Z,17.61
2023-05-14T02:30:15.774Z,17.62
2023-05-14T02:32:44.000Z,17.59
2023-05-14T02:35:11.160Z,17.55
2023-05-14T02:37:38.511Z,17.63
2023-05-14T02:40:06.658Z,17.70
2023-05-14T02:42:34.041Z,17.77
2023-05-14T02:45:01.222Z,17.74
2023-05-14T02:47:28.399Z,17.73
2023-05-14T02:49:55.516Z,17.69
2023-05-14T02:52:22.635Z,17.70
2023-05-14T02:54:49.785Z,17.76
2023-05-14T02:57:16.807Z,17.78
2023-05-14T02:59:43.932Z,17.74
2023-05-14T03:02:11.235Z,17.72
2023-05-14T03:04:38.813Z,17.74
2023-05-14T03:07:06.150Z,17.75
2023-05-14T03:09:33.673Z,17.73
2023-05-14T03:12:01.365Z,17.71
2023-05-14T03:14:28.569Z,17.71
2023-05-14T03:16:55.689Z,17.68
2023-05-14T03:19:22.853Z,17.67
2023-05-14T03:21:50.321Z,17.66
2023-05-14T03:24:17.470Z,17.70
2023-05-14T03:26:44.611Z,17.75
2023-05-14T03:29:11.736Z,17.78
2023-05-14T03:31:38.747Z,17.77
2023-05-14T03:34:06.139Z,17.78
2023-05-14T03:36:34.305Z,17.78
2023-05-14T03:39:01.457Z,17.78
2023-05-14T03:41:28.479Z,17.73
2023-05-14T03:43:55.831Z,17.72
2023-05-14T03:46:22.908Z,17.69
2023-05-14T03:48:50.241Z,17.65
2023-05-14T03:51:17.448Z,17.66
2023-05-14T03:53:44.719Z,17.64
2023-05-14T03:56:13.303Z,17.69
2023-05-14T03:58:40.844Z,17.73
2023-05-14T04:01:07.839Z,17.74
2023-05-14T04:03:35.169Z,17.75
2023-05-14T04:06:02.388Z,17.74
2023-05-14T04:08:29.574Z,17.82
2023-05-14T04:10:56.954Z,17.88
2023-05-14T04:13:24.134Z,17.97
2023-05-14T04:15:51.417Z,17.98
2023-05-14T04:18:18.845Z,17.95
2023-05-14T04:20:45.927Z,17.95
2023-05-14T04:23:13.140Z,17.94
2023-05-14T04:25:40.178Z,17.94
2023-05-14T04:28:07.363Z,17.97
2023-05-14T04:30:34.404Z,18.04
2023-05-14T04:33:01.551Z,18.19
2023-05-14T04:35:28.814Z,18.32
2023-05-14T04:37:56.106Z,18.41
2023-05-14T04:40:23.389Z,18.49
2023-05-14T04:42:51.807Z,18.46
2023-05-14T04:45:19.361Z,18.52
2023-05-14T04:47:46.911Z,18.60
2023-05-14T04:50:14.475Z,18.71
2023-05-14T04:52:41.821Z,18.77
2023-05-14T04:55:09.430Z,18.81
2023-05-14T04:57:36.542Z,18.84
2023-05-14T05:00:06.006Z,18.85
2023-05-14T05:02:34.967Z,18.88
2023-05-14T05:05:02.555Z,18.91
2023-05-14T05:07:29.689Z,19.00
2023-05-14T05:09:56.735Z,19.10
2023-05-14T05:12:23.935Z,19.26
2023-05-14T05:14:51.132Z,19.44
2023-05-14T05:17:18.101Z,19.62
2023-05-14T05:19:45.208Z,19.73
2023-05-14T05:22:12.343Z,19.84
2023-05-14T05:24:39.354Z,20.09
2023-05-14T05:27:06.487Z,20.29
2023-05-14T05:29:35.642Z,20.49
2023-05-14T05:32:02.679Z,20.67
2023-05-14T05:34:29.919Z,20.75
2023-05-14T05:36:57.093Z,20.99
2023-05-14T05:39:24.135Z,21.14
2023-05-14T05:41:51.216Z,21.15
2023-05-14T05:44:18.253Z,21.26
2023-05-14T05:46:45.340Z,21.27
2023-05-14T05:49:12.380Z,21.53
2023-05-14T05:51:39.502Z,21.89
2023-05-14T05:54:06.481Z,22.26
2023-05-14T05:56:33.570Z,22.75
2023-05-14T05:59:00.656Z,23.05
2023-05-14T06:01:29.657Z,23.54
2023-05-14T06:03:57.140Z,23.90
2023-05-14T06:06:24.341Z,23.89
2023-05-14T06:08:51.388Z,23.40
2023-05-14T06:11:18.457Z,23.17
2023-05-14T06:13:45.508Z,22.53
2023-05-14T06:16:12.588Z,22.26
2023-05-14T06:18:39.663Z,21.86
2023-05-14T06:21:06.785Z,21.45
2023-05-14T06:23:34.002Z,21.17
2023-05-14T06:26:01.130Z,20.80
2023-05-14T06:28:28.393Z,20.12
2023-05-14T06:30:56.062Z,20.02
2023-05-14T06:33:29.838Z,20.02
2023-05-14T06:36:01.127Z,19.92
2023-05-14T06:38:28.255Z,19.79
2023-05-14T06:40:55.399Z,19.60
2023-05-14T06:43:22.505Z,19.47
2023-05-14T06:45:52.842Z,19.36
2023-05-14T06:48:20.454Z,19.37
2023-05-14T06:50:48.613Z,19.45
2023-05-14T06:53:16.213Z,19.53
2023-05-14T06:55:43.378Z,19.71
2023-05-14T06:58:10.607Z,19.82
2023-05-14T07:00:37.746Z,19.84
2023-05-14T07:03:05.025Z,19.78
2023-05-14T07:05:32.463Z,19.74
2023-05-14T07:07:59.869Z,19.66
2023-05-14T07:10:26.965Z,19.62
2023-05-14T07:12:54.002Z,19.62
2023-05-14T07:15:21.413Z,19.37
2023-05-14T07:17:48.576Z,19.29
2023-05-14T07:20:15.666Z,19.27
2023-05-14T07:22:42.744Z,19.21
2023-05-14T07:25:10.193Z,19.14
2023-05-14T07:27:37.205Z,19.05
2023-05-14T07:30:04.642Z,19.04
2023-05-14T07:32:31.676Z,18.92
2023-05-14T07:34:58.921Z,18.85
2023-05-14T07:37:26.308Z,18.89
2023-05-14T07:39:53.896Z,18.96
2023-05-14T07:42:34.415Z,19.05
2023-05-14T07:45:02.865Z,19.25
2023-05-14T07:47:30.126Z,19.42
2023-05-14T07:49:57.848Z,19.45
2023-05-14T07:52:25.154Z,19.90
2023-05-14T07:54:52.561Z,20.23
2023-05-14T07:57:20.130Z,20.27
2023-05-14T07:59:48.754Z,20.15
2023-05-14T08:02:18.718Z,19.97
2023-05-14T08:04:45.862Z,19.81
2023-05-14T08:07:13.149Z,19.52
2023-05-14T08:09:40.357Z,19.33
2023-05-14T08:12:07.850Z,19.43
2023-05-14T08:14:34.958Z,19.51
2023-05-14T08:17:02.293Z,19.36
2023-05-14T08:19:29.612Z,19.29
2023-05-14T08:21:56.709Z,19.28
2023-05-14T08:24:23.801Z,19.44
2023-05-14T08:26:50.935Z,19.60
2023-05-14T08:29:18.043Z,19.61
2023-05-14T08:31:45.015Z,19.62
2023-05-14T08:34:12.126Z,19.50
2023-05-14T08:36:39.549Z,19.54
2023-05-14T08:39:07.962Z,19.42
2023-05-14T08:41:35.296Z,19.31
2023-05-14T08:44:15.522Z,19.30
2023-05-14T08:46:42.562Z,19.31
2023-05-14T08:49:40.997Z,19.42
2023-05-14T08:52:09.686Z,19.63
2023-05-14T08:54:36.974Z,19.82
2023-05-14T08:57:05.623Z,20.12
2023-05-14T08:59:33.012Z,20.38
2023-05-14T09:02:03.159Z,20.57
2023-05-14T09:04:31.589Z,20.73
2023-05-14T09:07:01.678Z,20.80
2023-05-14T09:09:29.221Z,20.78
2023-05-14T09:11:56.419Z,20.84
2023-05-14T09:14:24.207Z,21.04
2023-05-14T09:16:52.082Z,20.76
2023-05-14T09:19:19.772Z,20.80
2023-05-14T09:21:48.023Z,20.73
2023-05-14T09:24:23.150Z,20.63
2023-05-14T09:26:52.765Z,20.42
2023-05-14T09:29:20.098Z,20.23
2023-05-14T09:31:51.927Z,19.94
2023-05-14T09:34:32.721Z,19.85
2023-05-14T09:37:05.304Z,19.75
2023-05-14T09:39:33.677Z,19.75
2023-05-14T09:42:01.342Z,19.74
2023-05-14T09:44:28.960Z,19.63
2023-05-14T09:46:56.694Z,19.41
2023-05-14T09:49:23.815Z,19.34
2023-05-14T09:51:51.512Z,19.52
2023-05-14T09:54:18.852Z,19.66
2023-05-14T09:56:45.990Z,19.90
2023-05-14T09:59:13.402Z,19.94
2023-05-14T10:01:44.331Z,19.90
2023-05-14T10:04:12.782Z,19.91
2023-05-14T10:06:42.250Z,19.98
2023-05-14T10:09:19.551Z,20.01
2023-05-14T10:11:52.881Z,20.12
2023-05-14T10:14:43.338Z,20.09
2023-05-14T10:17:18.427Z,20.02
2023-05-14T10:19:54.188Z,20.02
2023-05-14T10:22:24.675Z,19.92
2023-05-14T10:24:52.812Z,19.79
2023-05-14T10:27:23.689Z,19.69
2023-05-14T10:29:55.777Z,19.53
2023-05-14T10:32:26.345Z,19.51
2023-05-14T10:34:54.089Z,19.51
2023-05-14T10:37:24.362Z,19.58
2023-05-14T10:39:56.592Z,19.72
2023-05-14T10:42:40.919Z,19.87
2023-05-14T10:45:10.476Z,19.92
2023-05-14T10:47:43.058Z,19.85
2023-05-14T10:50:15.173Z,19.59
2023-05-14T10:52:43.792Z,19.42
2023-05-14T10:55:14.527Z,19.36
2023-05-14T10:57:45.280Z,19.33
2023-05-14T11:00:14.670Z,19.49
2023-05-14T11:02:44.030Z,19.49
2023-05-14T11:05:17.430Z,19.53
2023-05-14T11:07:47.561Z,19.61
2023-05-14T11:10:14.822Z,19.59
2023-05-14T11:12:50.321Z,19.40
2023-05-14T11:15:26.379Z,19.13
2023-05-14T11:17:54.431Z,18.80
2023-05-14T11:20:22.079Z,18.34
2023-05-14T11:22:51.910Z,17.91
2023-05-14T11:25:19.186Z,17.75
2023-05-14T11:27:48.161Z,17.75
2023-05-14T11:30:20.002Z,17.84
2023-05-14T11:32:49.337Z,18.09
2023-05-14T11:35:17.865Z,18.35
2023-05-14T11:37:52.441Z,18.60
2023-05-14T11:40:20.077Z,18.81
2023-05-14T11:42:47.352Z,19.04
2023-05-14T11:45:24.481Z,19.09
2023-05-14T11:47:53.075Z,19.14
2023-05-14T11:50:22.121Z,19.04
2023-05-14T11:52:50.929Z,19.02
2023-05-14T11:55:18.310Z,19.01
2023-05-14T11:57:45.576Z,18.96
2023-05-14T12:00:21.787Z,18.94
2023-05-14T12:02:50.232Z,18.90
2023-05-14T12:05:17.660Z,18.93
2023-05-14T12:07:45.864Z,18.96
2023-05-14T12:10:13.891Z,19.02
2023-05-14T12:12:41.497Z,19.05
2023-05-14T12:15:13.614Z,19.09
2023-05-14T12:17:40.931Z,19.12
2023-05-14T12:20:12.589Z,19.15
2023-05-14T12:22:42.528Z,19.26
2023-05-14T12:25:14.180Z,19.34
2023-05-14T12:27:44.921Z,19.35
2023-05-14T12:30:21.190Z,19.37
2023-05-14T12:32:51.901Z,19.40
2023-05-14T12:35:19.502Z,19.40
2023-05-14T12:37:46.781Z,19.41
2023-05-14T12:40:14.099Z,19.41
2023-05-14T12:42:41.209Z,19.33
2023-05-14T12:45:08.862Z,19.31
2023-05-14T12:47:37.293Z,19.26
2023-05-14T12:50:05.060Z,19.27
2023-05-14T12:52:38.533Z,19.26
2023-05-14T12:55:08.354Z,19.20
2023-05-14T12:57:35.913Z,19.16
2023-05-14T13:00:07.159Z,19.10
2023-05-14T13:02:42.184Z,19.08
2023-05-14T13:05:12.924Z,19.00
2023-05-14T13:07:40.307Z,18.81
2023-05-14T13:10:08.327Z,18.65
2023-05-14T13:12:35.799Z,18.40
2023-05-14T13:15:02.876Z,18.23
2023-05-14T13:17:30.638Z,18.20
2023-05-14T13:19:57.875Z,18.21
2023-05-14T13:22:25.034Z,18.23
2023-05-14T13:24:52.079Z,18.21
2023-05-14T13:27:19.281Z,18.25
2023-05-14T13:29:46.516Z,18.34
2023-05-14T13:32:13.585Z,18.40
2023-05-14T13:34:40.750Z,18.49
2023-05-14T13:37:07.839Z,18.61
2023-05-14T13:39:34.889Z,18.58
2023-05-14T13:42:02.031Z,18.43
2023-05-14T13:44:29.565Z,18.34
2023-05-14T13:46:56.708Z,18.31
2023-05-14T13:49:23.925Z,18.35
2023-05-14T13:51:51.147Z,18.39
2023-05-14T13:54:18.403Z,18.47
2023-05-14T13:56:45.619Z,18.47
2023-05-14T13:59:15.724Z,18.41
2023-05-14T14:01:43.528Z,18.41
2023-05-14T14:04:11.089Z,18.47
2023-05-14T14:06:38.219Z,18.48
2023-05-14T14:09:05.280Z,18.48
2023-05-14T14:11:32.707Z,18.55
2023-05-14T14:13:59.842Z,18.62
2023-05-14T14:16:27.049Z,18.70
2023-05-14T14:18:54.254Z,18.83
2023-05-14T14:21:21.342Z,18.95
2023-05-14T14:23:49.127Z,19.07
2023-05-14T14:26:16.329Z,19.21
2023-05-14T14:28:43.676Z,19.34
2023-05-14T14:31:11.620Z,19.45
2023-05-14T14:33:38.894Z,19.47
2023-05-14T14:36:06.913Z,19.52
2023-05-14T14:38:33.983Z,19.52
2023-05-14T14:41:03.379Z,19.50
2023-05-14T14:43:30.516Z,19.48
2023-05-14T14:45:57.949Z,19.41
2023-05-14T14:48:39.908Z,19.36
2023-05-14T14:51:08.310Z,19.41
2023-05-14T14:53:37.278Z,19.52
2023-05-14T14:56:04.994Z,19.62
2023-05-14T14:58:32.326Z,19.67
2023-05-14T15:01:01.317Z,19.72
2023-05-14T15:03:29.105Z,19.70
2023-05-14T15:05:56.334Z,19.59
2023-05-14T15:08:27.964Z,19.46
2023-05-14T15:10:56.407Z,19.29
2023-05-14T15:13:24.299Z,19.25
2023-05-14T15:15:52.838Z,19.30
2023-05-14T15:18:21.429Z,19.37
2023-05-14T15:20:49.109Z,19.42
2023-05-14T15:23:16.434Z,19.44
2023-05-14T15:25:43.679Z,19.37
2023-05-14T15:28:11.147Z,19.31
2023-05-14T15:30:38.496Z,19.27
2023-05-14T15:33:08.116Z,19.24
2023-05-14T15:35:35.223Z,19.31
2023-05-14T15:38:04.078Z,19.30
2023-05-14T15:40:31.298Z,19.32
2023-05-14T15:42:58.292Z,19.37
2023-05-14T15:45:25.423Z,19.35
2023-05-14T15:47:52.552Z,19.21
2023-05-14T15:50:20.643Z,19.15
2023-05-14T15:52:48.488Z,19.12
2023-05-14T15:55:15.922Z,19.18
2023-05-14T15:57:43.150Z,19.16
2023-05-14T16:00:11.204Z,19.27
2023-05-14T16:02:40.200Z,19.34
2023-05-14T16:05:08.732Z,19.48
2023-05-14T16:07:36.496Z,19.58
2023-05-14T16:10:04.181Z,19.73
2023-05-14T16:12:31.254Z,19.80
2023-05-14T16:14:58.606Z,19.86
2023-05-14T16:17:27.824Z,19.94
2023-05-14T16:19:56.489Z,19.98
2023-05-14T16:22:23.777Z,20.07
2023-05-14T16:24:51.151Z,20.08
2023-05-14T16:27:21.001Z,20.03
2023-05-14T16:29:48.093Z,19.99
2023-05-14T16:32:15.338Z,19.98
2023-05-14T16:34:47.527Z,19.97
2023-05-14T16:37:15.219Z,19.95
2023-05-14T16:39:42.813Z,19.92
2023-05-14T16:42:09.961Z,19.93
2023-05-14T16:44:37.009Z,19.91
2023-05-14T16:47:04.756Z,19.90
2023-05-14T16:49:31.901Z,19.89
2023-05-14T16:51:58.914Z,19.89
2023-05-14T16:54:26.213Z,19.87
2023-05-14T16:56:53.244Z,19.88
2023-05-14T16:59:20.488Z,19.89
2023-05-14T17:01:48.299Z,19.80
2023-05-14T17:04:16.155Z,19.61
2023-05-14T17:06:43.362Z,19.58
2023-05-14T17:09:10.735Z,19.57
2023-05-14T17:11:37.770Z,19.59
2023-05-14T17:14:05.080Z,19.57
2023-05-14T17:16:32.135Z,19.56
2023-05-14T17:18:59.461Z,19.54
2023-05-14T17:21:26.631Z,19.51
2023-05-14T17:23:53.920Z,19.49
2023-05-14T17:26:21.377Z,19.45
2023-05-14T17:28:51.255Z,19.42
2023-05-14T17:31:18.541Z,19.38
2023-05-14T17:33:45.812Z,19.33
2023-05-14T17:36:13.116Z,19.26
2023-05-14T17:38:41.598Z,19.23
2023-05-14T17:41:09.857Z,19.19
2023-05-14T17:43:36.852Z,19.16
2023-05-14T17:46:05.348Z,19.11
2023-05-14T17:48:32.466Z,19.07
2023-05-14T17:51:18.622Z,19.00
2023-05-14T17:53:46.447Z,18.97
2023-05-14T17:56:13.657Z,18.97
2023-05-14T17:58:41.509Z,19.04
2023-05-14T18:01:08.829Z,19.07
2023-05-14T18:03:36.408Z,19.07
2023-05-14T18:06:04.133Z,19.02
2023-05-14T18:08:31.436Z,18.97
2023-05-14T18:11:00.957Z,18.93
2023-05-14T18:13:28.407Z,18.89
2023-05-14T18:15:56.708Z,18.88
2023-05-14T18:18:31.665Z,18.93
2023-05-14T18:20:58.833Z,18.91
2023-05-14T18:23:25.909Z,18.94
2023-05-14T18:25:53.111Z,18.90
2023-05-14T18:28:21.577Z,18.87
2023-05-14T18:30:49.950Z,18.86
2023-05-14T18:33:17.163Z,18.84
2023-05-14T18:35:44.467Z,18.80
2023-05-14T18:38:13.884Z,18.83
2023-05-14T18:40:41.025Z,18.78
2023-05-14T18:43:08.007Z,18.79
2023-05-14T18:45:35.189Z,18.78
2023-05-14T18:48:02.292Z,18.81
2023-05-14T18:50:29.405Z,18.81
2023-05-14T18:52:57.942Z,18.78
2023-05-14T18:55:25.394Z,18.74
2023-05-14T18:57:52.979Z,18.73
2023-05-14T19:00:20.381Z,18.72
2023-05-14T19:02:47.509Z,18.73
2023-05-14T19:05:14.676Z,18.72
2023-05-14T19:07:43.081Z,18.71
2023-05-14T19:10:11.224Z,18.66
2023-05-14T19:12:38.350Z,18.65
2023-05-14T19:15:06.194Z,18.68
2023-05-14T19:17:33.425Z,18.63
2023-05-14T19:20:00.628Z,18.63
2023-05-14T19:22:27.775Z,18.60
2023-05-14T19:24:55.123Z,18.58
2023-05-14T19:27:24.303Z,18.59
2023-05-14T19:29:51.572Z,18.59
2023-05-14T19:32:18.821Z,18.54
2023-05-14T19:34:48.034Z,18.50
2023-05-14T19:37:16.137Z,18.49
2023-05-14T19:39:43.350Z,18.41
2023-05-14T19:42:10.596Z,18.36
2023-05-14T19:44:37.869Z,18.24
2023-05-14T19:47:05.573Z,18.16
2023-05-14T19:49:32.797Z,18.13
2023-05-14T19:51:59.909Z,18.12
2023-05-14T19:54:27.004Z,18.08
2023-05-14T19:56:54.840Z,17.94
2023-05-14T19:59:22.011Z,17.88
2023-05-14T20:01:49.025Z,17.87
2023-05-14T20:04:16.277Z,17.90
2023-05-14T20:06:45.658Z,17.88
2023-05-14T20:09:13.854Z,17.93
2023-05-14T20:11:41.043Z,17.95
2023-05-14T20:14:08.266Z,18.00
2023-05-14T20:16:36.082Z,18.06
2023-05-14T20:19:04.044Z,18.08
2023-05-14T20:21:32.068Z,17.92
2023-05-14T20:23:59.375Z,17.87
2023-05-14T20:26:26.706Z,17.84
2023-05-14T20:28:55.307Z,17.85
2023-05-14T20:31:22.463Z,17.90
2023-05-14T20:33:49.722Z,17.88
2023-05-14T20:36:17.135Z,17.90
2023-05-14T20:38:44.139Z,17.90
2023-05-14T20:41:12.337Z,17.91
2023-05-14T20:43:39.618Z,17.92
2023-05-14T20:46:07.494Z,18.35
2023-05-14T20:48:34.624Z,18.45
2023-05-14T20:51:02.039Z,18.48
2023-05-14T20:53:29.235Z,18.49
2023-05-14T20:55:56.455Z,18.42
2023-05-14T20:58:23.522Z,18.42
2023-05-14T21:00:50.676Z,18.45
2023-05-14T21:03:17.849Z,18.44
2023-05-14T21:05:45.083Z,18.41
2023-05-14T21:08:12.118Z,18.36
2023-05-14T21:10:39.278Z,18.36
2023-05-14T21:13:07.273Z,18.40
2023-05-14T21:15:34.464Z,18.45
2023-05-14T21:18:02.387Z,18.54
2023-05-14T21:20:29.560Z,18.60
2023-05-14T21:22:56.648Z,18.59
2023-05-14T21:25:24.015Z,18.62
2023-05-14T21:27:51.339Z,18.63
2023-05-14T21:30:18.570Z,18.72
2023-05-14T21:32:45.659Z,18.83
2023-05-14T21:35:12.683Z,18.88
2023-05-14T21:37:40.016Z,18.88
2023-05-14T21:40:12.444Z,18.89
2023-05-14T21:42:40.921Z,18.87
2023-05-14T21:45:08.361Z,18.83
2023-05-14T21:47:35.748Z,18.83
2023-05-14T21:50:02.853Z,18.91
2023-05-14T21:52:30.054Z,18.88
2023-05-14T21:54:57.109Z,18.82
2023-05-14T21:57:25.211Z,18.78
2023-05-14T21:59:53.750Z,18.71
2023-05-14T22:02:20.890Z,18.64
2023-05-14T22:04:48.022Z,18.60
2023-05-14T22:07:15.100Z,18.55
2023-05-14T22:09:42.113Z,18.55
2023-05-14T22:12:10.168Z,18.51
2023-05-14T22:14:37.220Z,18.54
2023-05-14T22:17:04.948Z,18.48
2023-05-14T22:19:32.100Z,18.43
2023-05-14T22:21:59.257Z,18.38
2023-05-14T22:24:26.295Z,18.31
2023-05-14T22:26:53.410Z,18.27
2023-05-14T22:29:20.585Z,18.23
2023-05-14T22:31:47.615Z,18.16
2023-05-14T22:34:14.857Z,18.11
2023-05-14T22:36:42.127Z,18.01
2023-05-14T22:39:11.193Z,17.99
2023-05-14T22:41:39.261Z,17.95
2023-05-14T22:44:06.328Z,17.91
2023-05-14T22:46:33.539Z,17.87
2023-05-14T22:49:00.546Z,17.83
2023-05-14T22:51:27.628Z,17.61
2023-05-14T22:53:54.724Z,17.48
2023-05-14T22:56:21.957Z,17.37
2023-05-14T22:58:49.136Z,17.26
2023-05-14T23:01:16.172Z,17.27
2023-05-14T23:03:43.196Z,17.18
2023-05-14T23:06:13.818Z,17.12
2023-05-14T23:08:41.029Z,17.11
2023-05-14T23:11:08.114Z,17.11
2023-05-14T23:13:35.386Z,17.14
2023-05-14T23:16:02.516Z,17.16
2023-05-14T23:18:30.897Z,17.16
2023-05-14T23:20:58.381Z,17.17
2023-05-14T23:23:25.657Z,17.18
2023-05-14T23:25:53.407Z,17.20
2023-05-14T23:28:20.371Z,17.21
2023-05-14T23:30:47.451Z,17.21
2023-05-14T23:33:14.670Z,17.22
2023-05-14T23:35:41.906Z,17.21
2023-05-14T23:38:09.281Z,17.23
2023-05-14T23:40:36.463Z,17.23
2023-05-14T23:43:03.486Z,17.23
2023-05-14T23:45:31.162Z,17.21
2023-05-14T23:47:59.173Z,17.20
2023-05-14T23:50:26.487Z,17.17
2023-05-14T23:52:54.918Z,17.14
2023-05-14T23:55:22.418Z,17.13
2023-05-14T23:57:49.785Z,17.11
